Time;durP1;ratioP1;P1;durP2;ratioP2;P2;SDS_P1;SDS_P2;PMS_P1;PMS_P2;Temp;Humidity;BMP_temperature;BMP_pressure;BME280_temperature;BME280_humidity;BME280_pressure;Samples;Min_cycle;Max_cycle;Signal;HPM_P1;HPM_P2
2021/03/10 00:01:01;;;;;;;47.05;27.88;;;;;;;-2.95;65.57;96170.41;5075845;28;20380;-90
2021/03/10 00:03:26;;;;;;;54.28;32.40;;;;;;;-3.60;67.40;96078.25;5077012;28;20035;-91
2021/03/10 00:05:52;;;;;;;52.80;30.95;;;;;;;-2.96;67.34;96174.94;5077029;28;20032;-90
2021/03/10 00:08:17;;;;;;;51.33;31.80;;;;;;;-3.26;67.25;96137.97;5076932;28;20031;-91
2021/03/10 00:10:42;;;;;;;51.17;31.55;;;;;;;-2.84;67.46;96208.41;5075965;28;20105;-91
2021/03/10 00:13:08;;;;;;;48.22;28.58;;;;;;;-2.95;69.01;96199.63;5076156;28;20086;-91
2021/03/10 00:15:41;;;;;;;44.58;28.60;;;;;;;-3.53;68.66;96118.09;5078661;28;20024;-91
2021/03/10 00:18:06;;;;;;;40.67;25.65;;;;;;;-3.39;68.19;96146.66;5080153;28;20028;-91
2021/03/10 00:20:32;;;;;;;42.67;25.85;;;;;;;-3.07;68.18;96197.31;5079983;28;20027;-91
2021/03/10 00:22:57;;;;;;;47.35;28.75;;;;;;;-3.25;69.20;96181.25;5080100;28;20021;-91
2021/03/10 00:25:23;;;;;;;42.65;27.52;;;;;;;-2.99;70.44;96206.81;5080148;28;20021;-92
2021/03/10 00:27:48;;;;;;;45.80;27.15;;;;;;;-3.54;70.47;96129.88;5079798;28;20028;-91
2021/03/10 00:30:16;;;;;;;41.03;25.67;;;;;;;-3.28;71.09;96180.09;5079649;28;20063;-90
2021/03/10 00:32:41;;;;;;;196.75;34.08;;;;;;;-3.17;70.61;96204.09;5079623;28;20020;-91
2021/03/10 00:35:10;;;;;;;40.83;26.30;;;;;;;-3.21;70.48;96204.06;5079731;28;20077;-91
2021/03/10 00:37:36;;;;;;;43.58;25.00;;;;;;;-3.52;70.83;96151.50;5079635;28;20020;-91
2021/03/10 00:40:01;;;;;;;39.90;25.40;;;;;;;-3.48;71.08;96139.75;5079575;28;20408;-92
2021/03/10 00:42:27;;;;;;;41.35;25.10;;;;;;;-3.57;72.07;96134.03;5079763;28;20032;-91
2021/03/10 00:44:52;;;;;;;38.50;24.13;;;;;;;-3.31;69.97;96186.16;5079892;28;20032;-91
2021/03/10 00:47:18;;;;;;;38.22;24.10;;;;;;;-3.66;70.13;96152.19;5079335;28;20482;-92
2021/03/10 00:49:43;;;;;;;36.05;23.08;;;;;;;-3.35;70.02;96201.34;5079640;28;20024;-92
2021/03/10 00:52:09;;;;;;;43.95;25.25;;;;;;;-3.30;72.22;96198.31;5079233;28;20056;-91
2021/03/10 00:54:35;;;;;;;40.75;24.75;;;;;;;-3.87;71.78;96123.59;5079285;28;20351;-91
2021/03/10 00:57:01;;;;;;;42.50;26.23;;;;;;;-3.56;72.60;96158.69;5079348;28;20020;-91
2021/03/10 00:59:26;;;;;;;41.47;25.35;;;;;;;-3.76;72.32;96113.81;5079360;28;20340;-91
2021/03/10 01:01:52;;;;;;;44.80;26.38;;;;;;;-3.91;72.36;96109.53;5080040;28;20025;-91
2021/03/10 01:04:18;;;;;;;39.42;24.85;;;;;;;-3.67;71.94;96139.25;5080157;28;20021;-91
2021/03/10 01:06:43;;;;;;;47.28;25.65;;;;;;;-3.64;73.21;96144.59;5079095;28;20063;-91
2021/03/10 01:09:09;;;;;;;52.08;25.63;;;;;;;-3.93;72.96;96084.50;5079094;28;20029;-91
2021/03/10 01:11:35;;;;;;;46.72;27.23;;;;;;;-3.74;72.71;96116.09;5078998;28;20043;-92
2021/03/10 01:14:01;;;;;;;44.75;27.40;;;;;;;-3.81;72.25;96114.16;5079023;28;20045;-91
2021/03/10 01:16:27;;;;;;;46.83;25.88;;;;;;;-3.30;71.99;96190.34;5078936;28;20024;-92
2021/03/10 01:18:53;;;;;;;53.45;27.73;;;;;;;-3.31;72.06;96185.38;5078876;28;20419;-91
2021/03/10 01:21:19;;;;;;;51.47;29.23;;;;;;;-3.92;71.45;96102.72;5079718;28;20064;-92
2021/03/10 01:23:44;;;;;;;47.70;27.25;;;;;;;-3.59;72.62;96146.16;5079360;28;20024;-91
2021/03/10 01:26:10;;;;;;;49.20;29.67;;;;;;;-3.77;72.81;96114.19;5078263;28;20312;-91
2021/03/10 01:28:35;;;;;;;50.55;28.50;;;;;;;-3.70;71.22;96136.22;5078867;28;20043;-92
2021/03/10 01:31:00;;;;;;;46.83;27.08;;;;;;;-3.52;71.11;96148.84;5078845;28;20017;-92
2021/03/10 01:33:26;;;;;;;46.40;27.10;;;;;;;-3.52;71.26;96133.66;5078578;28;20033;-91
2021/03/10 01:36:02;;;;;;;39.67;25.33;;;;;;;-3.31;72.74;96164.91;5079714;28;20024;-92
2021/03/10 01:38:28;;;;;;;40.00;24.85;;;;;;;-3.61;70.61;96137.81;5079102;28;20028;-92
2021/03/10 01:40:54;;;;;;;37.00;22.98;;;;;;;-3.61;71.46;96129.84;5078257;28;20080;-91
2021/03/10 01:43:19;;;;;;;37.03;22.92;;;;;;;-3.81;71.75;96097.47;5078533;28;20016;-91
2021/03/10 01:45:45;;;;;;;32.97;21.30;;;;;;;-3.53;70.83;96137.47;5078215;28;20052;-90
2021/03/10 01:48:10;;;;;;;30.67;19.50;;;;;;;-3.34;71.68;96167.56;5079341;28;20453;-91
2021/03/10 01:50:36;;;;;;;28.13;18.70;;;;;;;-3.51;71.94;96129.13;5078004;28;20045;-91
2021/03/10 01:53:03;;;;;;;28.30;17.95;;;;;;;-3.66;71.40;96111.59;5079262;28;20107;-91
2021/03/10 01:55:29;;;;;;;28.02;17.15;;;;;;;-3.66;70.39;96115.00;5078150;28;20056;-90
2021/03/10 01:57:55;;;;;;;26.27;16.73;;;;;;;-3.43;69.05;96136.75;5078051;28;20078;-91
2021/03/10 02:00:24;;;;;;;25.73;17.83;;;;;;;-3.23;68.62;96155.84;5078203;28;20029;-91
2021/03/10 02:02:49;;;;;;;27.08;17.15;;;;;;;-3.32;69.33;96147.44;5080200;28;20024;-91
2021/03/10 02:05:18;;;;;;;25.83;17.65;;;;;;;-3.54;70.75;96090.78;5079037;28;20330;-91
2021/03/10 02:08:11;;;;;;;28.70;18.52;;;;;;;-3.26;68.93;96137.97;5079443;28;20054;-91
2021/03/10 02:11:04;;;;;;;31.90;18.92;;;;;;;-3.15;68.27;96156.63;5077842;28;20029;-91
2021/03/10 02:13:38;;;;;;;32.80;19.13;;;;;;;-3.37;70.43;96128.44;5078638;28;20078;-91
2021/03/10 02:16:37;;;;;;;28.60;19.25;;;;;;;-3.37;69.72;96147.78;5078664;28;20028;-91
2021/03/10 02:19:41;;;;;;;28.00;17.83;;;;;;;-3.33;72.24;96145.91;5079462;28;20427;-91
2021/03/10 02:22:23;;;;;;;30.55;18.80;;;;;;;-3.59;71.54;96130.22;5075599;28;20036;-91
2021/03/10 02:25:14;;;;;;;39.97;22.02;;;;;;;-3.53;69.45;96147.31;5078859;28;20078;-91
2021/03/10 02:27:55;;;;;;;33.80;21.42;;;;;;;-3.56;69.52;96143.53;5078295;28;20024;-91
2021/03/10 02:30:23;;;;;;;38.60;23.52;;;;;;;-3.71;70.12;96153.28;5077636;28;20047;-91
2021/03/10 02:33:01;;;;;;;44.15;25.15;;;;;;;-3.71;71.63;96147.22;5077741;28;20549;-91
2021/03/10 02:35:28;;;;;;;48.25;27.67;;;;;;;-4.08;71.47;96096.91;5078392;28;20028;-91
2021/03/10 02:37:57;;;;;;;43.28;25.90;;;;;;;-3.84;69.78;96143.31;5076652;28;20024;-91
2021/03/10 02:40:25;;;;;;;38.00;23.55;;;;;;;-4.13;70.26;96113.16;5077321;28;20340;-91
2021/03/10 02:42:51;;;;;;;39.95;23.50;;;;;;;-4.00;70.71;96143.56;5077375;28;20031;-91
2021/03/10 02:45:19;;;;;;;39.67;22.33;;;;;;;-4.32;72.25;96077.75;5078045;28;20082;-91
2021/03/10 02:47:46;;;;;;;34.33;21.00;;;;;;;-4.55;69.76;96069.25;5068895;28;20108;-91
2021/03/10 02:50:13;;;;;;;36.53;21.77;;;;;;;-4.12;70.22;96136.66;5056811;28;20025;-91
2021/03/10 02:52:39;;;;;;;37.20;21.52;;;;;;;-4.53;70.27;96088.97;5057995;28;20108;-91
2021/03/10 02:55:05;;;;;;;33.63;22.17;;;;;;;-4.31;71.48;96123.63;5056801;28;20079;-91
2021/03/10 02:57:34;;;;;;;40.90;24.20;;;;;;;-4.46;73.08;96098.88;5057123;28;20021;-91
2021/03/10 03:00:08;;;;;;;41.97;25.55;;;;;;;-4.67;71.47;96075.59;5056737;28;20492;-91
2021/03/10 03:02:35;;;;;;;48.20;26.52;;;;;;;-4.40;71.94;96115.22;5073397;28;20048;-90
2021/03/10 03:05:02;;;;;;;42.65;26.95;;;;;;;-4.56;71.69;96110.16;5076623;28;20025;-91
2021/03/10 03:07:28;;;;;;;42.42;24.55;;;;;;;-4.49;71.60;96110.97;5076762;28;20399;-91
2021/03/10 03:09:53;;;;;;;35.60;23.27;;;;;;;-4.83;72.61;96062.56;5076689;28;20056;-91
2021/03/10 03:12:19;;;;;;;36.90;22.27;;;;;;;-4.65;71.81;96105.13;5093013;28;20025;-91
2021/03/10 03:14:45;;;;;;;39.35;23.40;;;;;;;-4.78;72.51;96090.63;5076584;28;20115;-91
2021/03/10 03:17:13;;;;;;;37.63;21.75;;;;;;;-4.61;73.71;96110.47;5076486;28;20024;-91
2021/03/10 03:19:38;;;;;;;35.75;21.52;;;;;;;-4.83;72.72;96083.00;5076521;28;20119;-91
2021/03/10 03:22:05;;;;;;;39.15;23.25;;;;;;;-4.57;72.65;96116.59;5076390;28;20052;-91
2021/03/10 03:24:31;;;;;;;38.20;22.52;;;;;;;-4.77;72.09;96103.50;5076466;28;20051;-91
2021/03/10 03:26:57;;;;;;;40.30;22.02;;;;;;;-4.79;71.86;96105.00;5076316;28;20025;-91
2021/03/10 03:29:25;;;;;;;38.00;22.95;;;;;;;-4.88;72.90;96100.00;5076434;28;20415;-93
2021/03/10 03:31:51;;;;;;;40.67;23.00;;;;;;;-4.90;71.71;96106.75;5076330;28;20035;-91
2021/03/10 03:34:17;;;;;;;36.63;21.20;;;;;;;-4.52;71.58;96156.03;5076378;28;20111;-90
2021/03/10 03:36:43;;;;;;;30.75;19.63;;;;;;;-5.21;71.48;96058.41;5076993;28;20020;-90
2021/03/10 03:39:08;;;;;;;35.92;22.20;;;;;;;-4.70;73.08;96139.16;5093375;28;20119;-91
2021/03/10 03:41:34;;;;;;;46.55;27.50;;;;;;;-5.02;73.41;96097.94;5093072;28;20108;-92
2021/03/10 03:44:02;;;;;;;46.75;29.48;;;;;;;-4.73;71.40;96151.25;5093167;28;20119;-91
2021/03/10 03:46:28;;;;;;;44.88;27.48;;;;;;;-5.09;72.66;96097.13;5093223;28;20107;-92
2021/03/10 03:49:02;;;;;;;47.45;28.25;;;;;;;-4.68;72.24;96158.91;5075992;28;20040;-91
2021/03/10 03:51:31;;;;;;;37.95;25.88;;;;;;;-4.92;72.85;96116.97;5076155;28;20052;-91
2021/03/10 03:54:02;;;;;;;39.95;24.70;;;;;;;-4.60;72.64;96157.06;5092966;28;20482;-91
2021/03/10 03:56:28;;;;;;;;;;;;;;;-4.66;71.73;96161.19;5076651;28;20058;-91
2021/03/10 03:58:54;;;;;;;39.63;22.40;;;;;;;-5.12;72.66;96087.22;5076047;28;19916;-92
2021/03/10 04:01:20;;;;;;;38.13;23.35;;;;;;;-4.93;73.68;96116.22;5076013;28;20040;-91
2021/03/10 04:03:46;;;;;;;36.45;22.05;;;;;;;-5.08;72.01;96102.03;5076070;28;20055;-92
2021/03/10 04:06:12;;;;;;;35.13;21.83;;;;;;;-4.67;73.21;96163.06;5077296;28;20523;-91
2021/03/10 04:08:38;;;;;;;35.38;21.75;;;;;;;-4.77;73.90;96156.53;5076380;28;20032;-92
2021/03/10 04:11:06;;;;;;;35.33;21.52;;;;;;;-5.24;74.45;96075.00;5077073;28;20021;-91
2021/03/10 04:13:31;;;;;;;33.05;21.60;;;;;;;-5.01;73.83;96112.75;5075953;28;20017;-92
2021/03/10 04:16:01;;;;;;;44.67;21.80;;;;;;;-4.90;75.23;96130.63;5075830;28;20409;-91
2021/03/10 04:18:27;;;;;;;39.92;21.73;;;;;;;-5.19;73.68;96095.09;5075892;28;20324;-91
2021/03/10 04:20:52;;;;;;;35.22;21.35;;;;;;;-5.18;73.11;96096.63;5076755;28;20024;-92
2021/03/10 04:23:17;;;;;;;32.63;19.92;;;;;;;-5.02;74.21;96103.25;5075783;28;20465;-91
2021/03/10 04:25:43;;;;;;;32.28;19.25;;;;;;;-5.17;73.94;96084.91;5076797;28;20032;-91
2021/03/10 04:28:09;;;;;;;31.80;19.85;;;;;;;-4.53;73.23;96165.09;5075969;28;20320;-91
2021/03/10 04:30:34;;;;;;;30.65;19.55;;;;;;;-5.20;72.27;96078.44;5075807;28;20024;-92
2021/03/10 04:33:00;;;;;;;37.38;20.23;;;;;;;-4.52;71.65;96169.28;5075906;28;20060;-92
2021/03/10 04:35:25;;;;;;;34.92;20.17;;;;;;;-4.94;71.81;96101.44;5076067;28;20029;-92
2021/03/10 04:37:51;;;;;;;33.58;20.85;;;;;;;-5.04;72.63;96080.91;5076396;28;20467;-92
2021/03/10 04:40:18;;;;;;;32.40;20.80;;;;;;;-4.74;71.22;96120.56;5075602;28;20032;-91
2021/03/10 04:42:43;;;;;;;34.92;21.02;;;;;;;-4.88;71.46;96104.53;5075814;28;20058;-91
2021/03/10 04:45:12;;;;;;;32.85;20.95;;;;;;;-4.76;71.70;96114.88;5075754;28;20418;-91
2021/03/10 04:47:37;;;;;;;37.30;20.23;;;;;;;-4.80;72.49;96114.81;5075829;28;20366;-91
2021/03/10 04:50:04;;;;;;;37.47;21.02;;;;;;;-4.86;72.43;96112.88;5075585;28;20024;-91
2021/03/10 04:52:30;;;;;;;38.55;21.95;;;;;;;-4.99;72.18;96091.16;5075631;28;20044;-92
2021/03/10 04:54:55;;;;;;;34.42;20.50;;;;;;;-5.02;71.79;96094.53;5075639;28;20439;-91
2021/03/10 04:57:21;;;;;;;39.22;21.40;;;;;;;-4.94;71.33;96111.28;5076426;28;20029;-94
2021/03/10 04:59:46;;;;;;;36.10;21.73;;;;;;;-4.93;70.81;96107.50;5075448;28;20037;-91
2021/03/10 05:02:12;;;;;;;34.80;21.17;;;;;;;-5.05;71.69;96108.53;5078612;28;20432;-91
2021/03/10 05:04:39;;;;;;;39.38;21.30;;;;;;;-4.95;71.82;96115.81;5079103;28;20034;-92
2021/03/10 05:07:04;;;;;;;37.33;19.80;;;;;;;-4.92;70.81;96124.94;5078928;28;20023;-91
2021/03/10 05:09:30;;;;;;;35.35;19.85;;;;;;;-4.97;70.41;96125.25;5078781;28;20391;-92
2021/03/10 05:11:55;;;;;;;37.92;21.52;;;;;;;-4.88;73.37;96138.97;5078820;28;20020;-93
2021/03/10 05:14:22;;;;;;;34.40;20.52;;;;;;;-5.13;72.54;96123.56;5079250;28;20116;-93
2021/03/10 05:16:47;;;;;;;34.38;21.98;;;;;;;-5.60;72.33;96053.38;5078917;28;20030;-93
2021/03/10 05:19:12;;;;;;;40.83;21.05;;;;;;;-5.38;72.08;96074.81;5078904;28;20119;-94
2021/03/10 05:21:38;;;;;;;35.58;21.85;;;;;;;-5.25;72.45;96083.31;5078789;28;20024;-93
2021/03/10 05:24:04;;;;;;;38.42;21.13;;;;;;;-5.12;72.81;96103.13;5078778;28;20052;-95
2021/03/10 05:26:29;;;;;;;47.85;26.08;;;;;;;-5.03;71.26;96106.25;5078876;28;20035;-93
2021/03/10 05:28:54;;;;;;;45.20;25.35;;;;;;;-5.18;72.12;96092.09;5078634;28;20024;-94
2021/03/10 05:31:20;;;;;;;47.63;25.10;;;;;;;-5.27;71.70;96084.44;5078799;28;20034;-93
2021/03/10 05:33:45;;;;;;;54.58;29.65;;;;;;;-5.20;71.81;96110.25;5078866;28;20466;-93
2021/03/10 05:36:11;;;;;;;41.40;26.20;;;;;;;-5.03;70.64;96117.63;5078665;28;20028;-94
2021/03/10 05:38:36;;;;;;;46.22;27.42;;;;;;;-4.62;71.27;96180.53;5078610;28;20028;-93
2021/03/10 05:41:01;;;;;;;39.35;23.63;;;;;;;-5.34;70.80;96071.09;5078431;28;20028;-95
2021/03/10 05:43:29;;;;;;;37.85;22.00;;;;;;;-5.09;71.26;96116.41;5078727;28;20159;-94
2021/03/10 05:45:55;;;;;;;31.58;21.45;;;;;;;-5.38;70.83;96065.00;5081015;28;20416;-94
2021/03/10 05:48:20;;;;;;;37.20;21.80;;;;;;;-5.08;70.35;96103.94;5098619;28;20020;-93
2021/03/10 05:50:45;;;;;;;34.53;21.20;;;;;;;-5.20;70.66;96097.00;5078277;28;20036;-94
2021/03/10 05:53:15;;;;;;;33.60;20.23;;;;;;;-5.21;70.60;96100.78;5078424;28;20088;-93
2021/03/10 05:55:41;;;;;;;35.27;21.83;;;;;;;-4.98;70.37;96140.38;5078274;28;20162;-93
2021/03/10 05:58:11;;;;;;;41.70;23.50;;;;;;;-4.85;70.10;96159.44;5078550;28;20326;-94
2021/03/10 06:00:45;;;;;;;35.85;21.63;;;;;;;-4.50;70.44;96207.56;5077680;28;20027;-93
2021/03/10 06:03:12;;;;;;;36.90;22.42;;;;;;;-4.84;70.93;96142.44;5079035;28;20035;-93
2021/03/10 06:05:38;;;;;;;38.40;21.70;;;;;;;-4.86;71.33;96155.28;5078083;28;20024;-94
2021/03/10 06:08:06;;;;;;;32.20;20.35;;;;;;;-4.44;70.08;96197.38;5077681;28;20023;-93
2021/03/10 06:10:39;;;;;;;35.72;19.42;;;;;;;-4.36;70.28;96198.22;5072509;28;20363;-93
2021/03/10 06:13:16;;;;;;;38.20;20.58;;;;;;;-4.81;70.25;96133.75;5077164;28;20020;-93
2021/03/10 06:15:41;;;;;;;33.42;20.77;;;;;;;-4.96;69.89;96111.63;5078950;28;20029;-91
2021/03/10 06:18:07;;;;;;;40.80;20.67;;;;;;;-4.91;69.92;96113.94;5091644;28;20309;-92
2021/03/10 06:20:33;;;;;;;34.03;20.77;;;;;;;-4.84;69.46;96114.06;5078000;28;20474;-92
2021/03/10 06:22:59;;;;;;;38.00;21.13;;;;;;;-4.73;70.27;96118.69;5077472;28;20028;-92
2021/03/10 06:25:34;;;;;;;38.05;21.23;;;;;;;-4.53;69.07;96135.91;5077565;28;20389;-91
2021/03/10 06:28:00;;;;;;;42.88;21.80;;;;;;;-4.62;69.54;96108.97;5077635;28;20028;-92
2021/03/10 06:30:35;;;;;;;40.10;22.30;;;;;;;-3.78;69.83;96224.13;5076977;28;20370;-94
2021/03/10 06:33:04;;;;;;;42.53;22.30;;;;;;;-4.19;69.59;96165.81;5082881;28;20044;-93
2021/03/10 06:35:32;;;;;;;39.60;20.38;;;;;;;-3.89;69.63;96191.44;5095889;28;20028;-94
2021/03/10 06:38:09;;;;;;;43.92;27.63;;;;;;;-3.95;68.04;96191.00;5097749;28;20023;-94
2021/03/10 06:40:34;;;;;;;46.03;28.33;;;;;;;-3.79;68.35;96212.75;5097513;28;20073;-95
2021/03/10 06:43:00;;;;;;;47.65;28.17;;;;;;;-4.16;67.57;96154.44;5096382;28;20028;-94
2021/03/10 06:45:31;;;;;;;44.78;26.45;;;;;;;-3.51;67.68;96246.00;5112539;28;20412;-93
2021/03/10 06:47:57;;;;;;;50.15;27.92;;;;;;;-3.51;67.75;96249.41;5078520;28;20039;-93
2021/03/10 06:50:34;;;;;;;43.78;26.00;;;;;;;-3.79;67.27;96190.75;5092972;28;20024;-93
2021/03/10 06:52:59;;;;;;;40.35;24.98;;;;;;;-3.60;67.99;96208.38;5083644;28;20116;-93
2021/03/10 06:55:36;;;;;;;42.00;24.35;;;;;;;-3.88;67.67;96156.59;5076729;28;20103;-92
2021/03/10 06:58:01;;;;;;;41.17;24.23;;;;;;;-3.69;67.81;96169.59;5076826;28;20021;-91
2021/03/10 07:00:27;;;;;;;41.92;25.27;;;;;;;-3.10;66.91;96253.84;5076352;28;20032;-92
2021/03/10 07:02:53;;;;;;;43.03;24.67;;;;;;;-3.58;65.80;96174.22;5076607;28;20024;-92
2021/03/10 07:05:19;;;;;;;40.65;25.30;;;;;;;-3.73;66.00;96150.25;5076443;28;20043;-92
2021/03/10 07:07:46;;;;;;;46.60;26.77;;;;;;;-3.28;66.64;96197.94;5077265;28;20016;-92
2021/03/10 07:10:12;;;;;;;48.67;26.08;;;;;;;-3.26;66.82;96183.16;5083439;28;20426;-94
2021/03/10 07:12:37;;;;;;;61.97;28.45;;;;;;;-3.15;67.27;96175.22;5077342;28;20017;-93
2021/03/10 07:15:04;;;;;;;51.25;29.00;;;;;;;-2.83;67.24;96188.66;5076265;28;20412;-94
2021/03/10 07:17:31;;;;;;;49.13;27.77;;;;;;;-3.07;65.43;96144.16;5077352;28;20476;-92
2021/03/10 07:19:58;;;;;;;49.58;27.88;;;;;;;-2.41;66.23;96232.50;5090717;28;20120;-92
2021/03/10 07:22:36;;;;;;;46.35;26.48;;;;;;;-2.28;65.10;96252.34;5075472;28;20043;-91
2021/03/10 07:25:13;;;;;;;47.17;26.35;;;;;;;-2.72;63.52;96194.03;5075898;28;20032;-91
2021/03/10 07:27:44;;;;;;;44.53;25.27;;;;;;;-2.96;63.92;96151.03;5076263;28;20119;-93
2021/03/10 07:30:10;;;;;;;46.03;26.52;;;;;;;-2.32;64.65;96242.81;5094033;28;20024;-91
2021/03/10 07:32:36;;;;;;;43.80;26.75;;;;;;;-2.72;63.57;96194.03;5096567;28;20032;-91
2021/03/10 07:35:07;;;;;;;46.33;27.77;;;;;;;-2.87;63.32;96177.28;5105501;28;20820;-92
2021/03/10 07:37:32;;;;;;;;;;;;;;;-2.20;62.04;96256.53;5075424;28;20027;-91
2021/03/10 07:40:15;;;;;;;48.55;27.52;;;;;;;-2.61;63.71;96196.72;5076198;28;20003;-93
2021/03/10 07:42:58;;;;;;;45.85;28.33;;;;;;;-2.42;62.75;96212.38;5075879;28;20036;-92
2021/03/10 07:45:26;;;;;;;45.33;29.00;;;;;;;-2.38;61.49;96216.56;5079320;28;20028;-91
2021/03/10 07:47:55;;;;;;;48.35;27.50;;;;;;;-2.37;62.21;96215.44;5095495;28;20020;-92
2021/03/10 07:50:22;;;;;;;49.65;32.33;;;;;;;-1.90;61.89;96271.44;5080817;28;20028;-90
2021/03/10 07:52:53;;;;;;;40.85;25.63;;;;;;;-2.04;59.01;96250.84;5104020;28;20028;-92
2021/03/10 07:55:19;;;;;;;44.70;25.70;;;;;;;-1.98;60.70;96262.66;5078311;28;20028;-92
2021/03/10 07:57:55;;;;;;;51.22;29.30;;;;;;;-2.18;60.26;96205.59;5079462;28;20420;-92
2021/03/10 08:00:35;;;;;;;52.42;31.38;;;;;;;-2.09;61.47;96213.97;5075787;28;20036;-92
2021/03/10 08:03:01;;;;;;;47.17;26.90;;;;;;;-1.94;58.93;96212.09;5085575;28;20035;-94
2021/03/10 08:05:28;;;;;;;52.42;30.77;;;;;;;-1.95;59.09;96215.91;5077295;28;20021;-93
2021/03/10 08:08:11;;;;;;;43.45;26.88;;;;;;;-1.58;58.29;96266.91;5093394;28;20039;-93
2021/03/10 08:10:40;;;;;;;42.65;25.50;;;;;;;-1.81;58.65;96220.44;5076234;28;20016;-92
2021/03/10 08:13:19;;;;;;;41.78;25.27;;;;;;;-1.38;58.25;96266.53;5076229;28;20063;-92
2021/03/10 08:15:45;;;;;;;40.28;23.60;;;;;;;-1.46;57.46;96243.69;5077110;28;20030;-91
2021/03/10 08:18:11;;;;;;;37.25;23.73;;;;;;;-1.36;58.16;96234.94;5094760;28;20048;-90
2021/03/10 08:20:38;;;;;;;36.20;22.15;;;;;;;-1.22;55.74;96255.47;5086220;28;20317;-92
2021/03/10 08:23:06;;;;;;;37.35;21.55;;;;;;;-1.36;56.90;96227.69;5069170;28;20056;-92
2021/03/10 08:25:35;;;;;;;47.47;28.67;;;;;;;-1.04;55.09;96258.88;5080186;28;20586;-92
2021/03/10 08:28:14;;;;;;;32.95;20.25;;;;;;;-1.58;54.37;96184.31;5076460;28;20025;-92
2021/03/10 08:30:41;;;;;;;32.53;19.95;;;;;;;-1.56;54.76;96173.28;5092161;28;20029;-91
2021/03/10 08:33:08;;;;;;;30.33;18.80;;;;;;;-1.63;52.93;96171.38;5075806;28;20047;-91
2021/03/10 08:35:34;;;;;;;28.15;18.35;;;;;;;-1.33;55.35;96200.28;5076658;28;20059;-91
2021/03/10 08:38:03;;;;;;;33.65;17.65;;;;;;;-1.45;49.88;96182.00;5079396;28;20118;-92
2021/03/10 08:40:32;;;;;;;31.88;18.23;;;;;;;-1.07;51.27;96212.41;5079546;28;20140;-92
2021/03/10 08:43:02;;;;;;;29.10;19.20;;;;;;;-1.19;51.31;96198.72;5079461;28;20131;-92
2021/03/10 08:45:30;;;;;;;29.30;18.08;;;;;;;-0.66;52.33;96254.59;5079284;28;20050;-91
2021/03/10 08:48:01;;;;;;;31.10;17.45;;;;;;;-0.81;50.79;96221.09;5079153;28;20020;-92
2021/03/10 08:50:31;;;;;;;32.58;18.50;;;;;;;-0.75;54.89;96208.88;5079211;28;20040;-91
2021/03/10 08:52:57;;;;;;;32.10;18.30;;;;;;;-0.75;51.36;96186.78;5062057;28;20416;-92
2021/03/10 08:55:25;;;;;;;31.88;18.20;;;;;;;-0.28;50.05;96254.81;5078901;28;20035;-92
2021/03/10 08:57:52;;;;;;;27.67;17.48;;;;;;;-0.30;54.48;96233.09;5079440;28;20021;-91
2021/03/10 09:00:23;;;;;;;25.42;16.38;;;;;;;-0.32;50.38;96230.03;5079612;28;20385;-91
2021/03/10 09:02:50;;;;;;;23.45;14.80;;;;;;;-0.40;49.74;96215.22;5079107;28;20115;-91
2021/03/10 09:05:17;;;;;;;26.58;14.68;;;;;;;-0.68;48.06;96160.09;5078932;28;20386;-92
2021/03/10 09:07:46;;;;;;;22.33;14.65;;;;;;;-0.35;49.00;96202.22;5078933;28;20035;-90
2021/03/10 09:10:18;;;;;;;21.33;14.23;;;;;;;0.00;50.32;96256.59;5078823;28;20328;-91
2021/03/10 09:12:48;;;;;;;22.67;13.55;;;;;;;0.04;49.22;96229.84;5078960;28;20030;-90
2021/03/10 09:15:19;;;;;;;18.40;11.45;;;;;;;0.22;44.46;96233.94;5061373;28;20047;-91
2021/03/10 09:17:45;;;;;;;16.30;10.57;;;;;;;0.26;43.25;96247.25;5079802;28;20063;-90
2021/03/10 09:20:24;;;;;;;14.43;10.23;;;;;;;-0.03;44.31;96202.03;5078567;28;20107;-90
2021/03/10 09:22:50;;;;;;;16.20;10.55;;;;;;;0.25;42.22;96237.72;5078443;28;20032;-90
2021/03/10 09:25:19;;;;;;;15.90;10.27;;;;;;;-0.06;41.15;96173.44;5086516;28;20020;-90
2021/03/10 09:27:45;;;;;;;15.52;9.95;;;;;;;0.49;43.41;96244.06;5098837;28;20031;-90
2021/03/10 09:30:28;;;;;;;13.85;10.00;;;;;;;0.26;41.48;96199.91;5083637;28;20024;-89
2021/03/10 09:32:54;;;;;;;19.45;10.88;;;;;;;0.01;39.16;96153.19;5078332;28;20411;-90
2021/03/10 09:35:22;;;;;;;16.60;9.65;;;;;;;0.74;39.27;96227.78;5095421;28;20059;-90
2021/03/10 09:37:53;;;;;;;13.23;8.65;;;;;;;0.32;38.66;96165.56;5078386;28;20024;-90
2021/03/10 09:40:22;;;;;;;;;;;;;;;1.02;38.88;96248.94;5075562;28;20024;-89
2021/03/10 09:42:59;;;;;;;20.27;10.10;;;;;;;0.75;39.96;96205.25;5078426;28;19940;-90
2021/03/10 09:45:27;;;;;;;13.52;9.23;;;;;;;0.81;36.30;96238.44;5078427;28;20336;-91
2021/03/10 09:47:53;;;;;;;13.20;9.10;;;;;;;0.59;38.63;96180.97;5078750;28;20056;-91
2021/03/10 09:50:48;;;;;;;17.80;10.50;;;;;;;1.13;38.44;96234.69;5079078;28;20048;-90
2021/03/10 09:53:18;;;;;;;15.43;9.75;;;;;;;1.05;36.81;96239.34;5055862;28;20439;-91
2021/03/10 09:55:44;;;;;;;15.88;9.90;;;;;;;0.55;36.22;96158.84;5077878;28;20055;-90
2021/03/10 09:58:11;;;;;;;17.65;9.50;;;;;;;0.92;36.23;96190.94;5058088;28;20047;-90
2021/03/10 10:00:38;;;;;;;17.02;9.73;;;;;;;0.96;36.65;96183.66;5063787;28;20032;-90
2021/03/10 10:03:03;;;;;;;13.90;9.30;;;;;;;1.00;33.97;96183.59;5079074;28;20302;-90
2021/03/10 10:06:11;;;;;;;16.15;9.70;;;;;;;1.34;36.10;96226.44;5078343;28;20031;-90
2021/03/10 10:08:38;;;;;;;14.80;8.82;;;;;;;1.39;34.66;96235.94;5077839;28;20078;-90
2021/03/10 10:11:05;;;;;;;17.58;9.68;;;;;;;1.04;37.47;96163.69;5077789;28;20020;-90
2021/03/10 10:13:31;;;;;;;12.88;9.00;;;;;;;1.13;35.49;96157.88;5085028;28;20073;-90
2021/03/10 10:15:56;;;;;;;14.07;8.70;;;;;;;1.05;35.57;96127.75;5086100;28;20032;-90
2021/03/10 10:18:23;;;;;;;13.98;9.55;;;;;;;1.20;35.18;96155.09;5079646;28;20305;-90
2021/03/10 10:20:49;;;;;;;15.52;9.32;;;;;;;1.43;35.21;96175.09;5080944;28;20029;-90
2021/03/10 10:23:14;;;;;;;16.58;9.25;;;;;;;1.44;34.48;96176.59;5078239;28;20032;-89
2021/03/10 10:25:40;;;;;;;14.63;8.95;;;;;;;1.70;35.22;96228.66;5077486;28;20149;-89
2021/03/10 10:28:06;;;;;;;15.98;9.18;;;;;;;1.81;34.84;96229.28;5077440;28;20034;-89
2021/03/10 10:30:31;;;;;;;15.90;9.55;;;;;;;1.05;36.94;96111.69;5080984;28;20024;-90
2021/03/10 10:32:57;;;;;;;18.50;10.20;;;;;;;1.77;35.98;96207.19;5097717;28;20026;-89
2021/03/10 10:35:23;;;;;;;13.15;9.63;;;;;;;1.56;34.82;96162.69;5077379;28;20020;-89
2021/03/10 10:37:48;;;;;;;14.43;10.00;;;;;;;2.04;33.23;96223.25;5094003;28;20024;-89
2021/03/10 10:40:19;;;;;;;14.63;9.88;;;;;;;1.47;32.06;96157.06;5078218;28;20066;-89
2021/03/10 10:42:46;;;;;;;12.77;9.43;;;;;;;1.99;33.66;96235.19;5076682;28;20046;-89
2021/03/10 10:45:12;;;;;;;16.05;9.88;;;;;;;1.69;38.23;96152.94;5085779;28;20028;-89
2021/03/10 10:47:37;;;;;;;15.32;9.70;;;;;;;3.03;52.99;96196.75;5076503;28;20123;-89
2021/03/10 10:50:06;;;;;;;14.88;9.25;;;;;;;3.09;68.79;96151.38;5075637;28;20056;-89
2021/03/10 10:52:32;;;;;;;15.70;9.52;;;;;;;4.43;59.48;96235.69;5074711;28;20280;-88
2021/03/10 10:54:58;;;;;;;13.30;9.77;;;;;;;3.87;34.23;96219.63;5056852;28;20048;-89
2021/03/10 10:57:24;;;;;;;12.38;8.85;;;;;;;4.89;68.16;96206.16;5056946;28;20029;-88
2021/03/10 10:59:49;;;;;;;12.63;8.52;;;;;;;5.35;53.11;96178.00;5056001;28;20025;-87
2021/03/10 11:02:15;;;;;;;14.52;8.98;;;;;;;4.77;34.99;96194.16;5056581;28;20033;-88
2021/03/10 11:04:40;;;;;;;11.15;8.98;;;;;;;4.04;31.87;96184.72;5078969;28;20026;-88
2021/03/10 11:07:06;;;;;;;13.98;9.48;;;;;;;3.76;32.51;96157.31;5056064;28;20044;-88
2021/03/10 11:09:33;;;;;;;20.77;10.07;;;;;;;3.99;35.45;96187.91;5037290;28;20076;-88
2021/03/10 11:11:59;;;;;;;22.35;10.07;;;;;;;3.55;30.83;96141.66;5077766;28;20021;-88
2021/03/10 11:14:25;;;;;;;13.23;9.65;;;;;;;3.32;31.59;96143.28;5080612;28;20036;-89
2021/03/10 11:16:50;;;;;;;15.40;9.60;;;;;;;3.17;30.56;96130.56;5062048;28;20435;-88
2021/03/10 11:19:16;;;;;;;12.45;8.77;;;;;;;3.65;33.71;96154.88;5073753;28;20016;-88
2021/03/10 11:21:41;;;;;;;18.98;10.57;;;;;;;3.76;33.65;96157.31;5066053;28;20025;-88
2021/03/10 11:24:08;;;;;;;19.48;10.70;;;;;;;4.18;33.94;96190.56;5056120;28;20328;-89
2021/03/10 11:26:34;;;;;;;15.18;9.43;;;;;;;3.23;32.21;96086.69;5058739;28;20107;-88